Campiña-Situação meteorológica que não inspira cuidado.   -   Não há avisos

Nearby METAR Reports

 

LEZL - Sevilla, Spain
Distance from station: ENE 8km
Actualizado: 17/09/2019 02:00
Céu limpo
Céu limpo
 Vento de S
Vento: S 15 km/h
Temperatura: 23°C
Ponto de Orvalho: 17°C
Humidade: 69%
Barómetro: 1016 hPa
Resumo: Céu limpo
Visibility: greater than 10 km
2019/09/17 00:00 LEZL 170000Z AUTO 18008KT CAVOK 23/17 Q1016
LEMO - Morón, Spain
Distance from station: SE 43km
Actualizado: 17/09/2019 02:00
Céu limpo
Céu limpo
 Vento de SSW
Vento: SSW 9 km/h
Temperatura: 22°C
Ponto de Orvalho: 15°C
Humidade: 65%
Barómetro: 1017 hPa
Resumo: Céu limpo
Visibility: greater than 10 km
2019/09/17 00:00 LEMO 170000Z 20005KT 170V230 CAVOK 22/15 Q1017 NOSIG
LEJR - Jeréz, Spain
Distance from station: S 71km
Actualizado: 17/09/2019 02:30
Céu limpo
Céu limpo
 Vento de ENE
Vento: ENE 4 km/h
Temperatura: 20°C
Ponto de Orvalho: 18°C
Humidade: 88%
Barómetro: 1017 hPa
Resumo: Céu limpo
Visibility: greater than 10 km
2019/09/17 00:30 LEJR 170030Z AUTO 07002KT CAVOK 20/18 Q1017
 
LERT - Rota, Spain
Distance from station: SSW 89km
Actualizado: 17/09/2019 02:00
Parcialmente nublado
Parcialmente nublado
 Vento de calm
Vento: Calmo
Temperatura: 21°C
Ponto de Orvalho: 20°C
Humidade: 94%
Barómetro: 1017 hPa
Clouds: Parcialmente nublado
Visibility: 7 km
2019/09/17 00:00 LERT 170000Z 00000KT 7000 NSC 21/20 Q1017 NOSIG
LEMG - Málaga, Spain
Distance from station: ESE 157km
Actualizado: 17/09/2019 02:30
Few Clouds
Few Clouds
 Vento de WNW
Vento: WNW 7 km/h
Temperatura: 22°C
Ponto de Orvalho: 19°C
Humidade: 83%
Barómetro: 1018 hPa
Clouds: Few Clouds
Visibility: 10 km
Cloud details: Few Clouds 914 m
2019/09/17 00:30 LEMG 170030Z 30004KT 9999 FEW030 22/19 Q1018 NOSIG
LEBA - Córdoba, Spain
Distance from station: ENE 115km
Actualizado: 17/09/2019 02:30
Céu limpo
Céu limpo
 Vento de NNE
Vento: NNE 6 km/h
Temperatura: 22°C
Ponto de Orvalho: 18°C
Humidade: 78%
Barómetro: 1017 hPa
Resumo: Céu limpo
Visibility: greater than 10 km
2019/09/17 00:30 LEBA 170030Z AUTO 02003KT CAVOK 22/18 Q1017
 
LEGR - Granada, Spain
Distance from station: E 198km
Actualizado: 17/09/2019 02:30
Céu limpo
Céu limpo
 Vento de calm
Vento: Calmo
Temperatura: 19°C
Ponto de Orvalho: 17°C
Humidade: 88%
Barómetro: 1020 hPa
Resumo: Céu limpo
Visibility: greater than 10 km
2019/09/17 00:30 LEGR 170030Z AUTO 00000KT CAVOK 19/17 Q1020
LEAM - Almería, Spain
Distance from station: E 326km
Actualizado: 17/09/2019 02:30
Céu limpo
Céu limpo
 Vento de varies
Vento: varies 4 km/h
Temperatura: 23°C
Ponto de Orvalho: 20°C
Humidade: 83%
Barómetro: 1017 hPa
Clouds: Céu limpo
Visibility: 10 km
2019/09/17 00:30 LEAM 170030Z AUTO VRB02KT 9999 NCD 23/20 Q1017
LEMD - Madrid/Barajas, Spain
Distance from station: NNE 402km
Actualizado: 17/09/2019 02:30
Céu limpo
Céu limpo
 Vento de N
Vento: N 6 km/h
Temperatura: 17°C
Ponto de Orvalho: 15°C
Humidade: 88%
Barómetro: 1020 hPa
Resumo: Céu limpo
Visibility: greater than 10 km
2019/09/17 00:30 LEMD 170030Z 01003KT CAVOK 17/15 Q1020 NOSIG
 
LEVD - Valladolid, Spain
Distance from station: N 492km
Actualizado: 16/09/2019 21:30
NOT Current
Céu limpo
Céu limpo
 Vento de SSW
Vento: SSW 6 km/h
Temperatura: 19°C
Ponto de Orvalho: 14°C
Humidade: 73%
Barómetro: 1021 hPa
Resumo: Céu limpo
Visibility: greater than 10 km
2019/09/16 19:30 LEVD 161930Z 21003KT CAVOK 19/14 Q1021
LEBL - Barcelona, Spain
Distance from station: NE 816km
Actualizado: 17/09/2019 02:30
Few Clouds
Few Clouds
 Vento de NNW
Vento: NNW 7 km/h
Temperatura: 20°C
Ponto de Orvalho: 13°C
Humidade: 64%
Barómetro: 1017 hPa
Clouds: Few Clouds
Visibility: 10 km
Cloud details: Few Clouds 914 m
2019/09/17 00:30 LEBL 170030Z 33004KT 9999 FEW030 20/13 Q1017 NOSIG
LEVC - Valencia, Spain
Distance from station: ENE 535km
Actualizado: 17/09/2019 02:30
Few Clouds
Few Clouds
 Vento de WNW
Vento: WNW 4 km/h
Temperatura: 21°C
Ponto de Orvalho: 20°C
Humidade: 94%
Barómetro: 1018 hPa
Clouds: Few Clouds
Visibility: 9 km
Cloud details: Few Clouds 914 m
2019/09/17 00:30 LEVC 170030Z 29002KT 9000 FEW030 21/20 Q1018 NOSIG